createdAt,value
2022-09-05T00:02:20.652Z,9.70
2022-09-05T00:05:10.922Z,9.50
2022-09-05T00:07:59.462Z,8.60
2022-09-05T00:11:40.710Z,9.30
2022-09-05T00:14:07.034Z,8.90
2022-09-05T00:18:06.538Z,9.20
2022-09-05T00:24:29.589Z,8.30
2022-09-05T00:24:42.067Z,8.40
2022-09-05T00:28:00.150Z,9.10
2022-09-05T00:31:54.489Z,9.20
2022-09-05T00:34:18.799Z,9.00
2022-09-05T00:36:55.841Z,8.90
2022-09-05T00:39:42.187Z,8.00
2022-09-05T00:42:23.485Z,9.00
2022-09-05T00:45:01.557Z,8.50
2022-09-05T00:47:37.257Z,8.00
2022-09-05T00:50:19.947Z,8.20
2022-09-05T00:53:20.157Z,8.80
2022-09-05T00:56:09.213Z,8.40
2022-09-05T00:58:57.467Z,8.00
2022-09-05T01:01:35.417Z,8.00
2022-09-05T01:04:31.053Z,8.60
2022-09-05T01:07:11.955Z,7.80
2022-09-05T01:10:08.675Z,8.20
2022-09-05T01:13:24.248Z,8.20
2022-09-05T01:15:59.312Z,7.90
2022-09-05T01:18:49.389Z,8.60
2022-09-05T01:22:02.140Z,7.90
2022-09-05T01:24:54.501Z,8.10
2022-09-05T01:29:13.212Z,8.20
2022-09-05T01:31:20.994Z,8.50
2022-09-05T01:33:56.359Z,8.00
2022-09-05T01:37:06.617Z,8.50
2022-09-05T01:40:15.705Z,9.10
2022-09-05T01:43:15.249Z,8.20
2022-09-05T01:46:29.213Z,7.90
2022-09-05T01:49:17.171Z,8.50
2022-09-05T01:54:58.348Z,8.40
2022-09-05T01:57:52.693Z,8.30
2022-09-05T02:00:32.028Z,8.00
2022-09-05T02:03:41.110Z,8.40
2022-09-05T02:06:40.192Z,8.80
2022-09-05T02:09:47.312Z,8.20
2022-09-05T02:13:05.248Z,9.20
2022-09-05T02:15:59.248Z,8.60
2022-09-05T02:19:05.414Z,8.40
2022-09-05T02:21:56.501Z,8.20
2022-09-05T02:24:39.695Z,8.20
2022-09-05T02:27:47.545Z,8.10
2022-09-05T02:30:24.570Z,8.00
2022-09-05T02:33:32.555Z,7.80
2022-09-05T02:36:20.562Z,8.10
2022-09-05T02:45:00.437Z,8.00
2022-09-05T02:45:20.930Z,8.40
2022-09-05T02:46:03.309Z,7.90
2022-09-05T02:48:54.141Z,7.80
2022-09-05T02:56:18.533Z,8.80
2022-09-05T02:57:41.359Z,8.20
2022-09-05T02:58:05.898Z,8.30
2022-09-05T03:01:05.418Z,8.20
2022-09-05T03:04:05.216Z,7.60
2022-09-05T03:06:43.396Z,8.50
2022-09-05T03:09:28.653Z,8.90
2022-09-05T03:12:50.697Z,8.30
2022-09-05T03:16:04.679Z,9.30
2022-09-05T03:19:26.795Z,8.80
2022-09-05T03:22:15.320Z,7.80
2022-09-05T03:24:59.568Z,8.20
2022-09-05T03:27:56.428Z,8.10
2022-09-05T03:30:47.842Z,7.80
2022-09-05T03:33:54.372Z,7.60
2022-09-05T03:37:13.925Z,7.10
2022-09-05T03:40:17.096Z,7.30
2022-09-05T03:43:13.143Z,7.30
2022-09-05T03:46:31.442Z,6.80
2022-09-05T03:49:35.456Z,6.80
2022-09-05T03:57:17.964Z,6.70
2022-09-05T03:57:18.917Z,7.00
2022-09-05T03:59:36.001Z,6.60
2022-09-05T04:04:10.860Z,6.90
2022-09-05T04:08:18.068Z,6.40
2022-09-05T04:09:49.276Z,6.40
2022-09-05T04:12:26.326Z,6.60
2022-09-05T04:15:07.363Z,6.60
2022-09-05T04:17:48.066Z,6.50
2022-09-05T04:20:53.136Z,6.40
2022-09-05T04:23:46.193Z,6.40
2022-09-05T04:26:48.853Z,6.70
2022-09-05T04:29:49.501Z,5.70
2022-09-05T04:32:40.503Z,6.80
2022-09-05T04:35:54.021Z,6.50
2022-09-05T04:38:45.948Z,6.60
2022-09-05T04:41:39.722Z,6.90
2022-09-05T04:44:29.691Z,6.80
2022-09-05T04:47:14.842Z,6.20
2022-09-05T04:50:03.434Z,6.10
2022-09-05T04:53:18.547Z,6.10
2022-09-05T04:55:59.081Z,6.20
2022-09-05T05:00:08.959Z,6.50
2022-09-05T05:06:10.312Z,7.40
2022-09-05T05:06:20.305Z,7.00
2022-09-05T05:07:41.329Z,7.20
2022-09-05T05:13:10.665Z,7.70
2022-09-05T05:18:09.409Z,7.30
2022-09-05T05:18:10.897Z,7.60
2022-09-05T05:20:39.414Z,7.30
2022-09-05T05:23:07.896Z,7.40
2022-09-05T05:26:00.403Z,6.80
2022-09-05T05:29:20.958Z,7.90
2022-09-05T05:31:58.186Z,7.00
2022-09-05T05:34:44.457Z,7.70
2022-09-05T05:37:33.146Z,7.30
2022-09-05T05:40:18.827Z,7.80
2022-09-05T05:42:49.072Z,7.80
2022-09-05T05:45:35.400Z,8.00
2022-09-05T05:48:34.434Z,7.20
2022-09-05T05:52:02.414Z,7.30
2022-09-05T05:55:48.861Z,6.90
2022-09-05T05:58:21.381Z,6.80
2022-09-05T06:01:30.249Z,7.00
2022-09-05T06:04:45.150Z,6.80
2022-09-05T06:09:33.764Z,7.00
2022-09-05T06:14:51.160Z,6.70
2022-09-05T06:15:10.760Z,6.90
2022-09-05T06:18:37.975Z,7.70
2022-09-05T06:22:14.130Z,7.10
2022-09-05T06:25:40.948Z,7.80
2022-09-05T06:28:46.799Z,7.90
2022-09-05T06:31:52.045Z,7.40
2022-09-05T06:34:58.156Z,8.00
2022-09-05T06:37:59.446Z,7.60
2022-09-05T06:40:55.655Z,8.90
2022-09-05T06:44:05.703Z,8.00
2022-09-05T06:46:55.041Z,8.80
2022-09-05T06:49:59.476Z,8.20
2022-09-05T06:52:59.200Z,7.90
2022-09-05T06:56:07.378Z,8.60
2022-09-05T06:59:29.063Z,8.50
2022-09-05T07:02:59.879Z,8.80
2022-09-05T07:05:52.361Z,8.20
2022-09-05T07:08:49.263Z,8.90
2022-09-05T07:11:56.716Z,8.00
2022-09-05T07:15:08.907Z,7.40
2022-09-05T07:18:09.660Z,7.90
2022-09-05T07:21:32.033Z,8.20
2022-09-05T07:24:40.447Z,8.20
2022-09-05T07:27:11.190Z,8.40
2022-09-05T07:30:00.759Z,8.50
2022-09-05T07:32:37.160Z,7.90
2022-09-05T07:35:10.480Z,9.30
2022-09-05T07:37:46.583Z,9.00
2022-09-05T07:40:26.871Z,9.60
2022-09-05T07:43:10.541Z,8.30
2022-09-05T07:46:12.366Z,8.60
2022-09-05T07:49:02.052Z,8.70
2022-09-05T07:56:46.466Z,9.10
2022-09-05T07:57:01.601Z,8.80
2022-09-05T07:57:51.984Z,8.60
2022-09-05T08:00:29.370Z,8.70
2022-09-05T08:03:14.198Z,8.40
2022-09-05T08:05:57.636Z,8.20
2022-09-05T08:09:18.446Z,8.40
2022-09-05T08:11:48.391Z,7.70
2022-09-05T08:14:43.561Z,8.30
2022-09-05T08:17:29.887Z,8.30
2022-09-05T08:20:28.918Z,7.90
2022-09-05T08:23:06.865Z,7.80
2022-09-05T08:25:56.738Z,8.20
2022-09-05T08:28:56.501Z,8.40
2022-09-05T08:31:42.269Z,8.10
2022-09-05T08:35:13.118Z,8.00
2022-09-05T08:37:45.223Z,8.20
2022-09-05T08:40:40.568Z,8.30
2022-09-05T08:46:36.862Z,8.50
2022-09-05T08:47:01.501Z,7.70
2022-09-05T08:49:56.032Z,8.00
2022-09-05T08:52:56.577Z,8.00
2022-09-05T08:56:02.912Z,8.10
2022-09-05T08:58:50.693Z,8.10
2022-09-05T09:02:46.394Z,7.70
2022-09-05T09:05:56.667Z,7.40
2022-09-05T09:08:53.794Z,7.50
2022-09-05T09:11:36.736Z,7.40
2022-09-05T09:15:02.478Z,7.90
2022-09-05T09:17:53.409Z,8.30
2022-09-05T09:20:54.030Z,7.90
2022-09-05T09:23:48.233Z,7.40
2022-09-05T09:26:24.627Z,7.50
2022-09-05T09:29:13.568Z,8.10
2022-09-05T09:32:20.318Z,8.00
2022-09-05T09:35:05.685Z,8.00
2022-09-05T09:38:14.853Z,7.50
2022-09-05T09:41:03.060Z,8.10
2022-09-05T09:44:12.918Z,7.20
2022-09-05T09:46:47.394Z,7.50
2022-09-05T09:49:38.894Z,7.00
2022-09-05T09:52:41.481Z,7.60
2022-09-05T09:55:41.563Z,7.30
2022-09-05T09:58:22.507Z,7.70
2022-09-05T10:01:35.278Z,7.50
2022-09-05T10:10:34.568Z,7.20
2022-09-05T10:10:44.657Z,7.70
2022-09-05T10:11:51.496Z,7.00
2022-09-05T10:14:59.457Z,6.90
2022-09-05T10:17:54.662Z,7.30
2022-09-05T10:21:18.100Z,6.70
2022-09-05T10:24:26.634Z,6.70
2022-09-05T10:27:25.202Z,7.10
2022-09-05T10:30:16.733Z,7.40
2022-09-05T10:35:17.163Z,6.70
2022-09-05T10:36:25.832Z,7.20
2022-09-05T10:39:25.743Z,7.10
2022-09-05T10:42:04.887Z,6.50
2022-09-05T10:44:47.543Z,7.60
2022-09-05T10:47:29.203Z,7.10
2022-09-05T10:50:28.790Z,6.50
2022-09-05T10:53:22.187Z,7.20
2022-09-05T10:56:28.689Z,6.00
2022-09-05T11:02:15.798Z,6.50
2022-09-05T11:02:30.353Z,6.60
2022-09-05T11:05:27.659Z,6.70
2022-09-05T11:08:17.034Z,7.30
2022-09-05T11:11:28.624Z,7.20
2022-09-05T11:14:30.710Z,6.30
2022-09-05T11:17:42.022Z,6.60
2022-09-05T11:21:00.325Z,6.60
2022-09-05T11:23:50.330Z,6.40
2022-09-05T11:26:33.087Z,6.50
2022-09-05T11:29:16.337Z,7.20
2022-09-05T11:35:51.414Z,6.20
2022-09-05T11:39:57.301Z,5.90
2022-09-05T11:40:00.589Z,6.60
2022-09-05T11:41:54.968Z,6.30
2022-09-05T11:44:52.057Z,6.40
2022-09-05T11:47:58.248Z,5.70
2022-09-05T11:50:54.742Z,6.10
2022-09-05T11:54:21.428Z,5.70
2022-09-05T11:57:34.559Z,5.40
2022-09-05T12:00:33.868Z,6.00
2022-09-05T12:03:58.804Z,6.00
2022-09-05T12:07:01.653Z,6.20
2022-09-05T12:09:53.596Z,4.80
2022-09-05T12:12:54.126Z,5.40
2022-09-05T12:15:35.257Z,5.90
2022-09-05T12:18:53.058Z,5.40
2022-09-05T12:21:42.976Z,5.40
2022-09-05T12:25:15.835Z,5.50
2022-09-05T12:27:36.901Z,5.20
2022-09-05T12:30:23.232Z,5.30
2022-09-05T12:36:04.716Z,5.40
2022-09-05T12:40:06.274Z,5.20
2022-09-05T12:41:32.171Z,4.70
2022-09-05T12:44:37.558Z,5.70
2022-09-05T12:45:59.208Z,5.00
2022-09-05T12:48:51.751Z,5.70
2022-09-05T12:51:45.770Z,5.10
2022-09-05T12:54:33.459Z,5.20
2022-09-05T13:01:42.001Z,5.40
2022-09-05T13:03:06.943Z,5.00
2022-09-05T13:03:30.378Z,5.10
2022-09-05T13:06:25.422Z,4.60
2022-09-05T13:09:18.282Z,4.40
2022-09-05T13:14:58.213Z,4.90
2022-09-05T13:15:23.573Z,4.80
2022-09-05T13:18:16.557Z,4.40
2022-09-05T13:21:07.373Z,4.90
2022-09-05T13:23:56.935Z,4.50
2022-09-05T13:26:55.420Z,5.00
2022-09-05T13:29:39.881Z,4.60
2022-09-05T13:38:13.697Z,4.00
2022-09-05T13:38:17.983Z,4.60
2022-09-05T13:39:10.780Z,4.30
2022-09-05T13:42:00.670Z,3.70
2022-09-05T13:44:31.576Z,4.30
2022-09-05T13:47:40.091Z,4.40
2022-09-05T13:50:38.915Z,4.20
2022-09-05T13:53:19.889Z,5.20
2022-09-05T13:56:03.501Z,4.10
2022-09-05T13:58:56.439Z,4.50
2022-09-05T14:02:24.749Z,4.10
2022-09-05T14:05:20.269Z,4.30
2022-09-05T14:08:34.764Z,3.90
2022-09-05T14:11:19.137Z,3.70
2022-09-05T14:20:30.807Z,4.50
2022-09-05T14:23:10.746Z,4.00
2022-09-05T14:25:52.742Z,4.20
2022-09-05T14:28:47.778Z,3.80
2022-09-05T14:37:51.500Z,3.70
2022-09-05T14:37:54.786Z,4.00
2022-09-05T14:38:09.996Z,4.00
2022-09-05T14:41:36.615Z,3.50
2022-09-05T14:44:50.383Z,4.10
2022-09-05T14:47:52.930Z,3.40
2022-09-05T14:50:51.907Z,3.10
2022-09-05T14:57:28.623Z,2.90
2022-09-05T15:02:50.348Z,3.30
2022-09-05T15:03:00.378Z,3.40
2022-09-05T15:05:29.214Z,3.70
2022-09-05T15:10:16.299Z,3.40
2022-09-05T15:12:20.170Z,3.30
2022-09-05T15:14:10.690Z,3.50
2022-09-05T15:16:46.546Z,3.00
2022-09-05T15:20:05.349Z,3.40
2022-09-05T15:22:43.179Z,3.70
2022-09-05T15:25:26.204Z,3.30
2022-09-05T15:27:56.594Z,3.10
2022-09-05T15:30:36.558Z,3.70
2022-09-05T15:33:36.154Z,3.10
2022-09-05T15:36:08.204Z,3.00
2022-09-05T15:38:55.247Z,2.70
2022-09-05T15:41:31.062Z,3.10
2022-09-05T15:44:19.822Z,2.70
2022-09-05T15:46:58.266Z,3.40
2022-09-05T15:49:55.993Z,3.20
2022-09-05T15:52:29.149Z,2.90
2022-09-05T15:55:13.110Z,3.10
2022-09-05T15:58:05.968Z,3.30
2022-09-05T16:00:35.077Z,3.20
2022-09-05T16:04:47.885Z,3.10
2022-09-05T16:10:36.333Z,3.20
2022-09-05T16:10:43.753Z,3.40
2022-09-05T16:12:19.466Z,3.30
2022-09-05T16:15:45.262Z,3.20
2022-09-05T16:23:15.701Z,3.40
2022-09-05T16:23:26.566Z,3.80
2022-09-05T16:24:15.053Z,3.50
2022-09-05T16:26:53.498Z,3.50
2022-09-05T16:29:26.659Z,3.50
2022-09-05T16:32:06.651Z,6.70
2022-09-05T16:34:59.906Z,3.70
2022-09-05T16:37:43.094Z,3.30
2022-09-05T16:40:31.107Z,3.70
2022-09-05T16:43:37.654Z,3.30
2022-09-05T16:46:16.370Z,3.40
2022-09-05T16:49:19.604Z,3.30
2022-09-05T16:52:17.171Z,3.50
2022-09-05T16:55:01.188Z,3.50
2022-09-05T16:57:39.304Z,3.50
2022-09-05T17:00:11.523Z,3.60
2022-09-05T17:03:32.193Z,3.80
2022-09-05T17:06:52.923Z,4.30
2022-09-05T17:09:29.592Z,4.10
2022-09-05T17:12:02.996Z,4.00
2022-09-05T17:14:41.048Z,4.10
2022-09-05T17:18:19.596Z,4.20
2022-09-05T17:20:22.422Z,4.50
2022-09-05T17:29:20.233Z,4.40
2022-09-05T17:29:27.751Z,4.40
2022-09-05T17:29:46.855Z,4.70
2022-09-05T17:32:05.080Z,4.50
2022-09-05T17:34:54.708Z,4.80
2022-09-05T17:38:11.113Z,5.10
2022-09-05T17:41:18.113Z,4.60
2022-09-05T17:44:01.884Z,5.60
2022-09-05T17:46:35.326Z,5.60
2022-09-05T17:49:19.497Z,5.40
2022-09-05T17:51:54.763Z,5.40
2022-09-05T17:54:34.567Z,6.20
2022-09-05T17:57:34.667Z,6.10
2022-09-05T18:00:45.707Z,6.40
2022-09-05T18:03:45.964Z,6.00
2022-09-05T18:06:19.207Z,5.90
2022-09-05T18:08:51.615Z,6.20
2022-09-05T18:11:26.548Z,5.90
2022-09-05T18:14:06.930Z,5.70
2022-09-05T18:17:35.947Z,6.40
2022-09-05T18:20:06.590Z,6.40
2022-09-05T18:22:44.295Z,6.60
2022-09-05T18:25:33.409Z,6.40
2022-09-05T18:28:42.447Z,6.30
2022-09-05T18:31:40.993Z,7.40
2022-09-05T18:34:17.404Z,6.60
2022-09-05T18:36:53.790Z,7.50
2022-09-05T18:39:29.298Z,7.50
2022-09-05T18:42:33.667Z,6.90
2022-09-05T18:45:14.702Z,8.20
2022-09-05T18:48:04.166Z,7.70
2022-09-05T18:50:43.922Z,7.50
2022-09-05T18:53:31.977Z,8.40
2022-09-05T18:56:20.391Z,7.80
2022-09-05T18:59:18.769Z,8.30
2022-09-05T19:02:32.091Z,8.20
2022-09-05T19:05:35.277Z,7.80
2022-09-05T19:08:38.564Z,7.30
2022-09-05T19:11:27.755Z,8.50
2022-09-05T19:14:25.987Z,8.20
2022-09-05T19:17:24.826Z,7.70
2022-09-05T19:20:33.663Z,8.20
2022-09-05T19:23:14.548Z,7.90
2022-09-05T19:25:53.938Z,8.50
2022-09-05T19:36:47.282Z,7.90
2022-09-05T19:36:51.929Z,7.60
2022-09-05T19:37:13.583Z,7.80
2022-09-05T19:37:37.394Z,7.90
2022-09-05T19:44:03.314Z,8.20
2022-09-05T19:47:37.378Z,7.20
2022-09-05T19:47:52.051Z,7.90
2022-09-05T19:49:13.048Z,7.80
2022-09-05T19:51:44.807Z,7.50
2022-09-05T19:54:39.209Z,8.10
2022-09-05T19:57:20.877Z,7.30
2022-09-05T19:59:57.093Z,7.40
2022-09-05T20:02:36.165Z,7.40
2022-09-05T20:05:10.573Z,7.60
2022-09-05T20:07:52.369Z,7.60
2022-09-05T20:10:35.654Z,7.70
2022-09-05T20:13:24.365Z,7.50
2022-09-05T20:15:54.269Z,7.00
2022-09-05T20:18:26.971Z,7.00
2022-09-05T20:21:36.513Z,7.00
2022-09-05T20:24:05.892Z,7.00
2022-09-05T20:26:36.247Z,7.20
2022-09-05T20:29:10.237Z,6.90
2022-09-05T20:31:39.647Z,6.60
2022-09-05T20:35:09.180Z,6.50
2022-09-05T20:43:17.663Z,6.40
2022-09-05T20:43:18.293Z,6.70
2022-09-05T20:43:21.004Z,6.40
2022-09-05T20:47:39.929Z,6.40
2022-09-05T20:54:09.274Z,6.30
2022-09-05T20:54:17.371Z,6.30
2022-09-05T20:55:39.705Z,6.70
2022-09-05T20:58:31.122Z,6.50
2022-09-05T21:01:20.882Z,6.10
2022-09-05T21:03:59.040Z,6.10
2022-09-05T21:06:33.503Z,5.80
2022-09-05T21:09:30.544Z,6.60
2022-09-05T21:12:07.001Z,6.10
2022-09-05T21:14:38.390Z,6.10
2022-09-05T21:17:15.326Z,6.00
2022-09-05T21:19:53.577Z,5.30
2022-09-05T21:22:29.589Z,5.20
2022-09-05T21:25:42.215Z,4.80
2022-09-05T21:28:40.330Z,5.00
2022-09-05T21:31:13.700Z,4.80
2022-09-05T21:33:46.375Z,5.10
2022-09-05T21:36:17.491Z,5.00
2022-09-05T21:38:47.576Z,4.90
2022-09-05T21:41:18.701Z,5.10
2022-09-05T21:47:39.617Z,4.70
2022-09-05T21:47:41.844Z,4.70
2022-09-05T21:49:32.419Z,4.90
2022-09-05T21:52:09.239Z,4.50
2022-09-05T21:59:29.713Z,4.40
2022-09-05T21:59:32.838Z,4.30
2022-09-05T22:00:26.873Z,3.70
2022-09-05T22:02:56.332Z,4.60
2022-09-05T22:05:26.547Z,4.20
2022-09-05T22:07:56.770Z,4.30
2022-09-05T22:10:41.589Z,4.00
2022-09-05T22:13:16.633Z,3.80
2022-09-05T22:15:49.385Z,3.80
2022-09-05T22:18:18.495Z,3.90
2022-09-05T22:21:32.545Z,3.80
2022-09-05T22:23:46.945Z,3.80
2022-09-05T22:26:20.088Z,3.50
2022-09-05T22:28:52.191Z,4.30
2022-09-05T22:31:23.450Z,3.80
2022-09-05T22:33:53.036Z,3.70
2022-09-05T22:36:22.282Z,3.40
2022-09-05T22:38:51.705Z,3.20
2022-09-05T22:41:30.333Z,3.50
2022-09-05T22:44:00.331Z,3.60
2022-09-05T22:46:31.241Z,3.50
2022-09-05T22:49:00.449Z,3.20
2022-09-05T22:51:30.279Z,3.40
2022-09-05T22:53:59.654Z,3.60
2022-09-05T22:56:38.301Z,3.10
2022-09-05T22:59:08.304Z,3.70
2022-09-05T23:01:37.542Z,3.00
2022-09-05T23:04:06.580Z,2.90
2022-09-05T23:06:36.188Z,3.20
2022-09-05T23:09:05.427Z,3.20
2022-09-05T23:11:35.320Z,3.30
2022-09-05T23:14:04.536Z,2.80
2022-09-05T23:16:34.001Z,2.70
2022-09-05T23:19:03.380Z,2.50
2022-09-05T23:21:32.596Z,2.70
2022-09-05T23:24:01.802Z,2.80
2022-09-05T23:26:31.349Z,2.40
2022-09-05T23:29:00.842Z,2.60
2022-09-05T23:31:29.982Z,2.50
2022-09-05T23:33:59.516Z,2.80
2022-09-05T23:36:28.625Z,3.10
2022-09-05T23:38:57.805Z,2.70
2022-09-05T23:41:27.370Z,2.80
2022-09-05T23:43:56.596Z,2.40
2022-09-05T23:46:26.715Z,2.50
2022-09-05T23:48:56.115Z,2.30
2022-09-05T23:51:25.585Z,2.80
2022-09-05T23:53:54.826Z,2.30
2022-09-05T23:56:24.153Z,2.80
2022-09-05T23:58:53.508Z,2.80
